sensor_id;sensor_type;location;lat;lon;timestamp;temperature;humidity
71291;DHT22;59073;51.994;4.448;2022-10-16T00:01:47;15.55;72.74
71291;DHT22;59073;51.994;4.448;2022-10-16T00:04:13;15.57;72.18
71291;DHT22;59073;51.994;4.448;2022-10-16T00:06:41;15.65;72.51
71291;DHT22;59073;51.994;4.448;2022-10-16T00:09:08;15.60;72.31
71291;DHT22;59073;51.994;4.448;2022-10-16T00:11:36;15.67;72.34
71291;DHT22;59073;51.994;4.448;2022-10-16T00:14:04;15.68;72.35
71291;DHT22;59073;51.994;4.448;2022-10-16T00:16:33;15.64;72.30
71291;DHT22;59073;51.994;4.448;2022-10-16T00:18:58;15.62;72.19
71291;DHT22;59073;51.994;4.448;2022-10-16T00:21:27;15.58;72.23
71291;DHT22;59073;51.994;4.448;2022-10-16T00:24:13;15.57;72.30
71291;DHT22;59073;51.994;4.448;2022-10-16T00:26:39;15.58;72.67
71291;DHT22;59073;51.994;4.448;2022-10-16T00:29:05;15.58;73.24
71291;DHT22;59073;51.994;4.448;2022-10-16T00:31:31;15.57;72.93
71291;DHT22;59073;51.994;4.448;2022-10-16T00:33:57;15.61;73.04
71291;DHT22;59073;51.994;4.448;2022-10-16T00:36:24;15.64;72.77
71291;DHT22;59073;51.994;4.448;2022-10-16T00:38:55;15.68;72.99
71291;DHT22;59073;51.994;4.448;2022-10-16T00:41:24;15.68;73.28
71291;DHT22;59073;51.994;4.448;2022-10-16T00:43:56;15.75;73.51
71291;DHT22;59073;51.994;4.448;2022-10-16T00:46:26;15.65;73.98
71291;DHT22;59073;51.994;4.448;2022-10-16T00:49:12;15.60;73.92
71291;DHT22;59073;51.994;4.448;2022-10-16T00:51:44;15.61;74.16
71291;DHT22;59073;51.994;4.448;2022-10-16T00:54:14;15.60;74.19
71291;DHT22;59073;51.994;4.448;2022-10-16T00:56:41;15.55;74.68
71291;DHT22;59073;51.994;4.448;2022-10-16T00:59:23;15.51;75.00
71291;DHT22;59073;51.994;4.448;2022-10-16T01:01:50;15.43;75.42
71291;DHT22;59073;51.994;4.448;2022-10-16T01:04:15;15.43;75.72
71291;DHT22;59073;51.994;4.448;2022-10-16T01:06:56;15.26;76.62
71291;DHT22;59073;51.994;4.448;2022-10-16T01:09:34;15.16;77.21
71291;DHT22;59073;51.994;4.448;2022-10-16T01:12:14;15.16;77.37
71291;DHT22;59073;51.994;4.448;2022-10-16T01:14:53;15.09;77.89
71291;DHT22;59073;51.994;4.448;2022-10-16T01:17:36;15.12;78.02
71291;DHT22;59073;51.994;4.448;2022-10-16T01:23:05;15.16;78.08
71291;DHT22;59073;51.994;4.448;2022-10-16T01:28:55;15.04;78.43
71291;DHT22;59073;51.994;4.448;2022-10-16T01:31:25;15.04;78.45
71291;DHT22;59073;51.994;4.448;2022-10-16T01:34:02;14.90;78.57
71291;DHT22;59073;51.994;4.448;2022-10-16T01:36:39;14.81;78.97
71291;DHT22;59073;51.994;4.448;2022-10-16T01:39:09;14.75;79.14
71291;DHT22;59073;51.994;4.448;2022-10-16T01:41:47;14.76;79.23
71291;DHT22;59073;51.994;4.448;2022-10-16T01:44:28;14.68;79.21
71291;DHT22;59073;51.994;4.448;2022-10-16T01:46:56;14.69;79.36
71291;DHT22;59073;51.994;4.448;2022-10-16T01:49:26;14.71;79.76
71291;DHT22;59073;51.994;4.448;2022-10-16T01:51:56;14.67;79.77
71291;DHT22;59073;51.994;4.448;2022-10-16T01:54:27;14.64;79.92
71291;DHT22;59073;51.994;4.448;2022-10-16T01:56:56;14.64;79.89
71291;DHT22;59073;51.994;4.448;2022-10-16T01:59:26;14.69;79.77
71291;DHT22;59073;51.994;4.448;2022-10-16T02:01:59;14.68;79.85
71291;DHT22;59073;51.994;4.448;2022-10-16T02:04:37;14.73;79.74
71291;DHT22;59073;51.994;4.448;2022-10-16T02:07:04;14.78;79.58
71291;DHT22;59073;51.994;4.448;2022-10-16T02:09:33;14.79;79.35
71291;DHT22;59073;51.994;4.448;2022-10-16T02:12:04;14.85;79.14
71291;DHT22;59073;51.994;4.448;2022-10-16T02:14:32;14.86;78.95
71291;DHT22;59073;51.994;4.448;2022-10-16T02:16:58;14.90;78.98
71291;DHT22;59073;51.994;4.448;2022-10-16T02:19:24;14.89;79.01
71291;DHT22;59073;51.994;4.448;2022-10-16T02:22:00;14.85;79.06
71291;DHT22;59073;51.994;4.448;2022-10-16T02:24:43;14.82;79.19
71291;DHT22;59073;51.994;4.448;2022-10-16T02:27:30;14.81;79.30
71291;DHT22;59073;51.994;4.448;2022-10-16T02:30:05;14.78;79.31
71291;DHT22;59073;51.994;4.448;2022-10-16T02:32:37;14.78;79.29
71291;DHT22;59073;51.994;4.448;2022-10-16T02:35:04;14.79;79.54
71291;DHT22;59073;51.994;4.448;2022-10-16T02:37:32;14.81;79.26
71291;DHT22;59073;51.994;4.448;2022-10-16T02:39:58;14.79;79.37
71291;DHT22;59073;51.994;4.448;2022-10-16T02:42:29;14.79;79.28
71291;DHT22;59073;51.994;4.448;2022-10-16T02:44:55;14.83;79.40
71291;DHT22;59073;51.994;4.448;2022-10-16T02:47:20;14.78;79.26
71291;DHT22;59073;51.994;4.448;2022-10-16T02:49:46;14.76;79.56
71291;DHT22;59073;51.994;4.448;2022-10-16T02:52:11;14.68;79.88
71291;DHT22;59073;51.994;4.448;2022-10-16T02:54:36;14.67;79.88
71291;DHT22;59073;51.994;4.448;2022-10-16T02:57:02;14.65;79.85
71291;DHT22;59073;51.994;4.448;2022-10-16T02:59:27;14.68;79.79
71291;DHT22;59073;51.994;4.448;2022-10-16T03:01:52;14.67;79.87
71291;DHT22;59073;51.994;4.448;2022-10-16T03:04:18;14.59;79.99
71291;DHT22;59073;51.994;4.448;2022-10-16T03:06:43;14.61;80.23
71291;DHT22;59073;51.994;4.448;2022-10-16T03:09:09;14.62;80.21
71291;DHT22;59073;51.994;4.448;2022-10-16T03:11:34;14.61;80.40
71291;DHT22;59073;51.994;4.448;2022-10-16T03:13:59;14.67;80.18
71291;DHT22;59073;51.994;4.448;2022-10-16T03:16:25;14.68;80.26
71291;DHT22;59073;51.994;4.448;2022-10-16T03:18:50;14.68;80.31
71291;DHT22;59073;51.994;4.448;2022-10-16T03:21:16;14.71;80.31
71291;DHT22;59073;51.994;4.448;2022-10-16T03:23:42;14.73;80.48
71291;DHT22;59073;51.994;4.448;2022-10-16T03:26:07;14.78;80.37
71291;DHT22;59073;51.994;4.448;2022-10-16T03:28:32;14.78;79.88
71291;DHT22;59073;51.994;4.448;2022-10-16T03:30:58;14.79;79.99
71291;DHT22;59073;51.994;4.448;2022-10-16T03:33:23;14.81;79.59
71291;DHT22;59073;51.994;4.448;2022-10-16T03:35:53;14.89;79.42
71291;DHT22;59073;51.994;4.448;2022-10-16T03:38:20;14.92;79.51
71291;DHT22;59073;51.994;4.448;2022-10-16T03:40:46;14.90;79.49
71291;DHT22;59073;51.994;4.448;2022-10-16T03:43:11;14.95;79.53
71291;DHT22;59073;51.994;4.448;2022-10-16T03:45:37;14.99;79.16
71291;DHT22;59073;51.994;4.448;2022-10-16T03:48:02;14.99;79.21
71291;DHT22;59073;51.994;4.448;2022-10-16T03:50:29;14.95;79.60
71291;DHT22;59073;51.994;4.448;2022-10-16T03:52:54;14.85;79.65
71291;DHT22;59073;51.994;4.448;2022-10-16T03:55:20;14.81;79.85
71291;DHT22;59073;51.994;4.448;2022-10-16T03:57:45;14.81;79.96
71291;DHT22;59073;51.994;4.448;2022-10-16T04:00:11;14.76;79.92
71291;DHT22;59073;51.994;4.448;2022-10-16T04:02:37;14.79;80.23
71291;DHT22;59073;51.994;4.448;2022-10-16T04:05:03;14.86;80.22
71291;DHT22;59073;51.994;4.448;2022-10-16T04:07:28;14.85;80.04
71291;DHT22;59073;51.994;4.448;2022-10-16T04:09:54;14.83;80.25
71291;DHT22;59073;51.994;4.448;2022-10-16T04:12:19;14.81;80.23
71291;DHT22;59073;51.994;4.448;2022-10-16T04:14:44;14.75;80.58
71291;DHT22;59073;51.994;4.448;2022-10-16T04:17:10;14.76;80.80
71291;DHT22;59073;51.994;4.448;2022-10-16T04:19:35;14.79;80.70
71291;DHT22;59073;51.994;4.448;2022-10-16T04:22:01;14.85;80.68
71291;DHT22;59073;51.994;4.448;2022-10-16T04:24:26;14.83;80.69
71291;DHT22;59073;51.994;4.448;2022-10-16T04:26:51;14.82;80.88
71291;DHT22;59073;51.994;4.448;2022-10-16T04:29:17;14.79;80.92
71291;DHT22;59073;51.994;4.448;2022-10-16T04:31:42;14.81;80.93
71291;DHT22;59073;51.994;4.448;2022-10-16T04:34:08;14.79;80.85
71291;DHT22;59073;51.994;4.448;2022-10-16T04:36:33;14.78;80.96
71291;DHT22;59073;51.994;4.448;2022-10-16T04:38:59;14.79;80.93
71291;DHT22;59073;51.994;4.448;2022-10-16T04:41:24;14.83;81.06
71291;DHT22;59073;51.994;4.448;2022-10-16T04:43:49;14.81;81.09
71291;DHT22;59073;51.994;4.448;2022-10-16T04:46:15;14.81;81.15
71291;DHT22;59073;51.994;4.448;2022-10-16T04:48:40;14.88;80.90
71291;DHT22;59073;51.994;4.448;2022-10-16T04:51:06;14.88;80.83
71291;DHT22;59073;51.994;4.448;2022-10-16T04:53:31;14.93;81.04
71291;DHT22;59073;51.994;4.448;2022-10-16T04:55:56;14.90;80.99
71291;DHT22;59073;51.994;4.448;2022-10-16T04:58:22;14.93;81.15
71291;DHT22;59073;51.994;4.448;2022-10-16T05:00:48;14.88;81.10
71291;DHT22;59073;51.994;4.448;2022-10-16T05:03:13;14.90;81.13
71291;DHT22;59073;51.994;4.448;2022-10-16T05:05:45;14.90;81.12
71291;DHT22;59073;51.994;4.448;2022-10-16T05:08:15;14.93;81.00
71291;DHT22;59073;51.994;4.448;2022-10-16T05:10:42;15.00;81.36
71291;DHT22;59073;51.994;4.448;2022-10-16T05:13:08;15.12;81.05
71291;DHT22;59073;51.994;4.448;2022-10-16T05:15:33;15.10;81.23
71291;DHT22;59073;51.994;4.448;2022-10-16T05:17:59;15.14;81.32
71291;DHT22;59073;51.994;4.448;2022-10-16T05:20:25;15.10;81.61
71291;DHT22;59073;51.994;4.448;2022-10-16T05:22:50;15.12;81.92
71291;DHT22;59073;51.994;4.448;2022-10-16T05:25:16;15.00;82.15
71291;DHT22;59073;51.994;4.448;2022-10-16T05:27:41;14.98;82.46
71291;DHT22;59073;51.994;4.448;2022-10-16T05:30:07;14.90;82.54
71291;DHT22;59073;51.994;4.448;2022-10-16T05:32:33;14.83;83.14
71291;DHT22;59073;51.994;4.448;2022-10-16T05:34:58;14.88;83.33
71291;DHT22;59073;51.994;4.448;2022-10-16T05:37:25;14.79;83.73
71291;DHT22;59073;51.994;4.448;2022-10-16T05:39:52;14.65;83.64
71291;DHT22;59073;51.994;4.448;2022-10-16T05:42:17;14.48;84.27
71291;DHT22;59073;51.994;4.448;2022-10-16T05:44:43;14.49;84.29
71291;DHT22;59073;51.994;4.448;2022-10-16T05:47:08;14.52;84.30
71291;DHT22;59073;51.994;4.448;2022-10-16T05:49:35;14.52;84.26
71291;DHT22;59073;51.994;4.448;2022-10-16T05:52:01;14.52;83.80
71291;DHT22;59073;51.994;4.448;2022-10-16T05:54:26;14.48;83.75
71291;DHT22;59073;51.994;4.448;2022-10-16T05:56:52;14.46;84.16
71291;DHT22;59073;51.994;4.448;2022-10-16T05:59:17;14.40;83.72
71291;DHT22;59073;51.994;4.448;2022-10-16T06:01:43;14.41;83.78
71291;DHT22;59073;51.994;4.448;2022-10-16T06:04:08;14.41;83.70
71291;DHT22;59073;51.994;4.448;2022-10-16T06:06:34;14.46;83.59
71291;DHT22;59073;51.994;4.448;2022-10-16T06:09:02;14.45;83.41
71291;DHT22;59073;51.994;4.448;2022-10-16T06:11:30;14.40;83.38
71291;DHT22;59073;51.994;4.448;2022-10-16T06:13:59;14.46;83.36
71291;DHT22;59073;51.994;4.448;2022-10-16T06:16:27;14.49;83.15
71291;DHT22;59073;51.994;4.448;2022-10-16T06:18:54;14.48;82.46
71291;DHT22;59073;51.994;4.448;2022-10-16T06:21:23;14.48;81.92
71291;DHT22;59073;51.994;4.448;2022-10-16T06:23:52;14.54;81.90
71291;DHT22;59073;51.994;4.448;2022-10-16T06:26:20;14.52;81.71
71291;DHT22;59073;51.994;4.448;2022-10-16T06:28:46;14.55;80.87
71291;DHT22;59073;51.994;4.448;2022-10-16T06:31:12;14.52;80.61
71291;DHT22;59073;51.994;4.448;2022-10-16T06:33:39;14.49;80.86
71291;DHT22;59073;51.994;4.448;2022-10-16T06:36:06;14.49;81.50
71291;DHT22;59073;51.994;4.448;2022-10-16T06:38:34;14.37;81.75
71291;DHT22;59073;51.994;4.448;2022-10-16T06:41:00;14.41;81.86
71291;DHT22;59073;51.994;4.448;2022-10-16T06:43:26;14.54;82.02
71291;DHT22;59073;51.994;4.448;2022-10-16T06:45:56;14.52;81.59
71291;DHT22;59073;51.994;4.448;2022-10-16T06:48:22;14.57;82.22
71291;DHT22;59073;51.994;4.448;2022-10-16T06:51:06;14.61;82.38
71291;DHT22;59073;51.994;4.448;2022-10-16T06:53:35;14.68;82.04
71291;DHT22;59073;51.994;4.448;2022-10-16T06:58:37;14.64;82.24
71291;DHT22;59073;51.994;4.448;2022-10-16T07:01:04;14.58;82.05
71291;DHT22;59073;51.994;4.448;2022-10-16T07:03:30;14.62;82.18
71291;DHT22;59073;51.994;4.448;2022-10-16T07:05:56;14.71;82.03
71291;DHT22;59073;51.994;4.448;2022-10-16T07:08:22;14.72;81.92
71291;DHT22;59073;51.994;4.448;2022-10-16T07:10:47;14.82;81.70
71291;DHT22;59073;51.994;4.448;2022-10-16T07:13:12;15.03;81.24
71291;DHT22;59073;51.994;4.448;2022-10-16T07:15:40;15.12;81.35
71291;DHT22;59073;51.994;4.448;2022-10-16T07:18:06;15.20;81.41
71291;DHT22;59073;51.994;4.448;2022-10-16T07:20:31;15.29;80.95
71291;DHT22;59073;51.994;4.448;2022-10-16T07:22:57;15.37;80.96
71291;DHT22;59073;51.994;4.448;2022-10-16T07:25:22;15.46;80.09
71291;DHT22;59073;51.994;4.448;2022-10-16T07:27:47;15.58;79.68
71291;DHT22;59073;51.994;4.448;2022-10-16T07:30:13;15.77;79.24
71291;DHT22;59073;51.994;4.448;2022-10-16T07:32:38;15.92;78.77
71291;DHT22;59073;51.994;4.448;2022-10-16T07:35:04;15.98;78.05
71291;DHT22;59073;51.994;4.448;2022-10-16T07:37:30;16.04;78.24
71291;DHT22;59073;51.994;4.448;2022-10-16T07:39:55;16.19;77.54
71291;DHT22;59073;51.994;4.448;2022-10-16T07:42:20;16.23;77.15
71291;DHT22;59073;51.994;4.448;2022-10-16T07:44:46;16.32;76.93
71291;DHT22;59073;51.994;4.448;2022-10-16T07:47:11;16.43;77.07
71291;DHT22;59073;51.994;4.448;2022-10-16T07:49:37;16.55;76.80
71291;DHT22;59073;51.994;4.448;2022-10-16T07:52:02;16.56;76.08
71291;DHT22;59073;51.994;4.448;2022-10-16T07:54:28;16.57;76.13
71291;DHT22;59073;51.994;4.448;2022-10-16T07:56:53;16.80;75.92
71291;DHT22;59073;51.994;4.448;2022-10-16T07:59:18;16.80;75.16
71291;DHT22;59073;51.994;4.448;2022-10-16T08:01:44;16.84;76.17
71291;DHT22;59073;51.994;4.448;2022-10-16T08:04:09;16.95;75.74
71291;DHT22;59073;51.994;4.448;2022-10-16T08:06:38;16.99;75.37
71291;DHT22;59073;51.994;4.448;2022-10-16T08:09:04;17.00;75.01
71291;DHT22;59073;51.994;4.448;2022-10-16T08:11:29;17.32;75.34
71291;DHT22;59073;51.994;4.448;2022-10-16T08:13:55;17.32;74.75
71291;DHT22;59073;51.994;4.448;2022-10-16T08:16:21;17.53;74.37
71291;DHT22;59073;51.994;4.448;2022-10-16T08:18:47;17.72;73.37
71291;DHT22;59073;51.994;4.448;2022-10-16T08:21:15;17.80;73.36
71291;DHT22;59073;51.994;4.448;2022-10-16T08:23:41;18.00;73.58
71291;DHT22;59073;51.994;4.448;2022-10-16T08:26:08;17.99;72.17
71291;DHT22;59073;51.994;4.448;2022-10-16T08:28:35;17.89;73.03
71291;DHT22;59073;51.994;4.448;2022-10-16T08:31:11;17.90;73.53
71291;DHT22;59073;51.994;4.448;2022-10-16T08:33:38;18.09;72.92
71291;DHT22;59073;51.994;4.448;2022-10-16T08:36:04;18.27;72.25
71291;DHT22;59073;51.994;4.448;2022-10-16T08:38:30;18.43;71.58
71291;DHT22;59073;51.994;4.448;2022-10-16T08:41:21;18.36;72.19
71291;DHT22;59073;51.994;4.448;2022-10-16T08:48:54;18.37;70.94
71291;DHT22;59073;51.994;4.448;2022-10-16T08:51:31;18.58;72.53
71291;DHT22;59073;51.994;4.448;2022-10-16T08:54:09;18.92;70.19
71291;DHT22;59073;51.994;4.448;2022-10-16T08:56:39;19.12;70.76
71291;DHT22;59073;51.994;4.448;2022-10-16T08:59:10;19.24;69.54
71291;DHT22;59073;51.994;4.448;2022-10-16T09:01:43;19.45;70.33
71291;DHT22;59073;51.994;4.448;2022-10-16T09:04:43;19.53;70.01
71291;DHT22;59073;51.994;4.448;2022-10-16T09:07:34;19.32;69.34
71291;DHT22;59073;51.994;4.448;2022-10-16T09:18:01;19.29;70.11
71291;DHT22;59073;51.994;4.448;2022-10-16T09:23:25;19.54;69.10
71291;DHT22;59073;51.994;4.448;2022-10-16T09:25:52;19.63;69.10
71291;DHT22;59073;51.994;4.448;2022-10-16T09:28:19;19.81;67.72
71291;DHT22;59073;51.994;4.448;2022-10-16T09:30:46;19.94;67.30
71291;DHT22;59073;51.994;4.448;2022-10-16T09:33:14;19.95;68.25
71291;DHT22;59073;51.994;4.448;2022-10-16T09:35:45;19.84;68.29
71291;DHT22;59073;51.994;4.448;2022-10-16T09:38:31;19.71;67.40
71291;DHT22;59073;51.994;4.448;2022-10-16T09:41:16;19.66;67.48
71291;DHT22;59073;51.994;4.448;2022-10-16T09:46:34;19.67;69.03
71291;DHT22;59073;51.994;4.448;2022-10-16T09:49:04;19.81;68.78
71291;DHT22;59073;51.994;4.448;2022-10-16T09:51:33;20.00;68.61
71291;DHT22;59073;51.994;4.448;2022-10-16T09:56:35;20.24;67.60
71291;DHT22;59073;51.994;4.448;2022-10-16T10:01:38;20.66;67.12
71291;DHT22;59073;51.994;4.448;2022-10-16T10:04:05;20.83;66.33
71291;DHT22;59073;51.994;4.448;2022-10-16T10:06:40;20.61;65.70
71291;DHT22;59073;51.994;4.448;2022-10-16T10:09:34;20.72;65.95
71291;DHT22;59073;51.994;4.448;2022-10-16T10:12:04;20.90;65.69
71291;DHT22;59073;51.994;4.448;2022-10-16T10:14:37;20.46;65.03
71291;DHT22;59073;51.994;4.448;2022-10-16T10:19:46;20.15;66.91
71291;DHT22;59073;51.994;4.448;2022-10-16T10:28:07;20.29;65.94
71291;DHT22;59073;51.994;4.448;2022-10-16T10:31:08;20.39;65.03
71291;DHT22;59073;51.994;4.448;2022-10-16T10:34:00;20.29;64.04
71291;DHT22;59073;51.994;4.448;2022-10-16T10:36:41;20.51;64.21
71291;DHT22;59073;51.994;4.448;2022-10-16T10:45:04;21.06;62.39
71291;DHT22;59073;51.994;4.448;2022-10-16T11:00:21;20.79;62.82
71291;DHT22;59073;51.994;4.448;2022-10-16T11:05:44;20.22;60.56
71291;DHT22;59073;51.994;4.448;2022-10-16T11:12:02;20.59;60.16
71291;DHT22;59073;51.994;4.448;2022-10-16T11:21:50;20.20;61.02
71291;DHT22;59073;51.994;4.448;2022-10-16T11:24:59;20.42;62.74
71291;DHT22;59073;51.994;4.448;2022-10-16T11:27:57;20.42;59.74
71291;DHT22;59073;51.994;4.448;2022-10-16T12:11:05;20.18;59.64
71291;DHT22;59073;51.994;4.448;2022-10-16T12:16:54;19.45;59.91
71291;DHT22;59073;51.994;4.448;2022-10-16T12:26:55;19.53;60.65
71291;DHT22;59073;51.994;4.448;2022-10-16T12:46:39;19.63;58.54
71291;DHT22;59073;51.994;4.448;2022-10-16T12:56:08;19.59;57.93
71291;DHT22;59073;51.994;4.448;2022-10-16T13:04:19;19.52;58.96
71291;DHT22;59073;51.994;4.448;2022-10-16T13:07:06;19.46;59.31
71291;DHT22;59073;51.994;4.448;2022-10-16T13:12:31;19.40;59.85
71291;DHT22;59073;51.994;4.448;2022-10-16T13:18:23;19.56;59.28
71291;DHT22;59073;51.994;4.448;2022-10-16T13:21:07;19.63;60.18
71291;DHT22;59073;51.994;4.448;2022-10-16T14:21:34;19.91;61.86
71291;DHT22;59073;51.994;4.448;2022-10-16T14:24:34;19.91;61.23
71291;DHT22;59073;51.994;4.448;2022-10-16T14:27:01;19.80;62.31
71291;DHT22;59073;51.994;4.448;2022-10-16T14:29:28;19.85;63.25
71291;DHT22;59073;51.994;4.448;2022-10-16T14:32:06;19.80;63.21
71291;DHT22;59073;51.994;4.448;2022-10-16T14:34:53;19.69;62.63
71291;DHT22;59073;51.994;4.448;2022-10-16T14:37:27;19.56;63.01
71291;DHT22;59073;51.994;4.448;2022-10-16T14:40:02;19.23;61.21
71291;DHT22;59073;51.994;4.448;2022-10-16T14:42:48;19.22;62.40
71291;DHT22;59073;51.994;4.448;2022-10-16T14:45:27;19.22;63.12
71291;DHT22;59073;51.994;4.448;2022-10-16T14:47:57;19.16;61.94
71291;DHT22;59073;51.994;4.448;2022-10-16T14:50:23;19.06;62.73
71291;DHT22;59073;51.994;4.448;2022-10-16T14:52:52;19.13;62.63
71291;DHT22;59073;51.994;4.448;2022-10-16T14:55:20;19.22;62.72
71291;DHT22;59073;51.994;4.448;2022-10-16T14:57:49;19.13;62.81
71291;DHT22;59073;51.994;4.448;2022-10-16T15:00:27;18.99;63.74
71291;DHT22;59073;51.994;4.448;2022-10-16T15:03:17;18.88;62.99
71291;DHT22;59073;51.994;4.448;2022-10-16T15:05:45;18.82;63.45
71291;DHT22;59073;51.994;4.448;2022-10-16T15:11:49;18.81;63.99
71291;DHT22;59073;51.994;4.448;2022-10-16T15:14:22;18.75;64.16
71291;DHT22;59073;51.994;4.448;2022-10-16T15:16:51;18.69;64.62
71291;DHT22;59073;51.994;4.448;2022-10-16T15:19:22;18.60;65.25
71291;DHT22;59073;51.994;4.448;2022-10-16T15:21:50;18.67;64.20
71291;DHT22;59073;51.994;4.448;2022-10-16T15:24:20;18.69;63.61
71291;DHT22;59073;51.994;4.448;2022-10-16T15:26:49;18.72;63.69
71291;DHT22;59073;51.994;4.448;2022-10-16T15:29:15;18.58;64.53
71291;DHT22;59073;51.994;4.448;2022-10-16T15:31:40;18.47;64.85
71291;DHT22;59073;51.994;4.448;2022-10-16T15:34:13;18.24;65.18
71291;DHT22;59073;51.994;4.448;2022-10-16T15:36:39;18.34;64.71
71291;DHT22;59073;51.994;4.448;2022-10-16T15:39:16;18.26;64.61
71291;DHT22;59073;51.994;4.448;2022-10-16T15:41:46;18.26;65.17
71291;DHT22;59073;51.994;4.448;2022-10-16T15:44:20;18.23;66.30
71291;DHT22;59073;51.994;4.448;2022-10-16T15:46:47;17.96;66.09
71291;DHT22;59073;51.994;4.448;2022-10-16T15:49:13;17.82;66.38
71291;DHT22;59073;51.994;4.448;2022-10-16T15:51:41;17.65;67.55
71291;DHT22;59073;51.994;4.448;2022-10-16T15:54:07;17.51;67.72
71291;DHT22;59073;51.994;4.448;2022-10-16T15:56:33;17.52;66.70
71291;DHT22;59073;51.994;4.448;2022-10-16T15:58:59;17.56;67.36
71291;DHT22;59073;51.994;4.448;2022-10-16T16:01:26;17.61;67.23
71291;DHT22;59073;51.994;4.448;2022-10-16T16:03:53;17.61;67.06
71291;DHT22;59073;51.994;4.448;2022-10-16T16:06:19;17.58;67.39
71291;DHT22;59073;51.994;4.448;2022-10-16T16:08:44;17.43;67.56
71291;DHT22;59073;51.994;4.448;2022-10-16T16:11:12;17.49;67.58
71291;DHT22;59073;51.994;4.448;2022-10-16T16:13:38;17.36;68.26
71291;DHT22;59073;51.994;4.448;2022-10-16T16:16:09;17.31;68.60
71291;DHT22;59073;51.994;4.448;2022-10-16T16:18:35;17.34;68.42
71291;DHT22;59073;51.994;4.448;2022-10-16T16:21:00;17.15;69.37
71291;DHT22;59073;51.994;4.448;2022-10-16T16:23:26;17.11;70.25
71291;DHT22;59073;51.994;4.448;2022-10-16T16:26:04;17.10;70.31
71291;DHT22;59073;51.994;4.448;2022-10-16T16:28:30;17.12;69.51
71291;DHT22;59073;51.994;4.448;2022-10-16T16:30:55;17.24;69.24
71291;DHT22;59073;51.994;4.448;2022-10-16T16:33:21;17.12;69.89
71291;DHT22;59073;51.994;4.448;2022-10-16T16:35:46;17.08;69.97
71291;DHT22;59073;51.994;4.448;2022-10-16T16:38:12;16.99;70.88
71291;DHT22;59073;51.994;4.448;2022-10-16T16:40:37;16.91;70.64
71291;DHT22;59073;51.994;4.448;2022-10-16T16:43:02;16.94;70.44
71291;DHT22;59073;51.994;4.448;2022-10-16T16:45:29;16.93;71.01
71291;DHT22;59073;51.994;4.448;2022-10-16T16:47:54;16.87;71.73
71291;DHT22;59073;51.994;4.448;2022-10-16T16:50:20;16.70;71.78
71291;DHT22;59073;51.994;4.448;2022-10-16T16:52:45;16.63;72.27
71291;DHT22;59073;51.994;4.448;2022-10-16T16:55:10;16.55;72.73
71291;DHT22;59073;51.994;4.448;2022-10-16T16:57:36;16.52;73.25
71291;DHT22;59073;51.994;4.448;2022-10-16T17:00:03;16.70;71.61
71291;DHT22;59073;51.994;4.448;2022-10-16T17:02:28;16.83;71.14
71291;DHT22;59073;51.994;4.448;2022-10-16T17:04:54;16.77;71.94
71291;DHT22;59073;51.994;4.448;2022-10-16T17:07:21;16.74;72.14
71291;DHT22;59073;51.994;4.448;2022-10-16T17:09:47;16.56;72.78
71291;DHT22;59073;51.994;4.448;2022-10-16T17:12:12;16.42;72.64
71291;DHT22;59073;51.994;4.448;2022-10-16T17:14:38;16.40;73.49
71291;DHT22;59073;51.994;4.448;2022-10-16T17:17:03;16.33;73.52
71291;DHT22;59073;51.994;4.448;2022-10-16T17:19:32;16.38;73.35
71291;DHT22;59073;51.994;4.448;2022-10-16T17:21:57;16.40;73.61
71291;DHT22;59073;51.994;4.448;2022-10-16T17:24:22;16.43;73.50
71291;DHT22;59073;51.994;4.448;2022-10-16T17:26:49;16.46;73.75
71291;DHT22;59073;51.994;4.448;2022-10-16T17:29:16;16.59;73.03
71291;DHT22;59073;51.994;4.448;2022-10-16T17:31:43;16.50;73.88
71291;DHT22;59073;51.994;4.448;2022-10-16T17:34:09;16.45;74.33
71291;DHT22;59073;51.994;4.448;2022-10-16T17:36:37;16.59;73.86
71291;DHT22;59073;51.994;4.448;2022-10-16T17:39:07;16.62;73.21
71291;DHT22;59073;51.994;4.448;2022-10-16T17:41:34;16.53;73.85
71291;DHT22;59073;51.994;4.448;2022-10-16T17:44:00;16.29;74.75
71291;DHT22;59073;51.994;4.448;2022-10-16T17:46:26;16.11;75.73
71291;DHT22;59073;51.994;4.448;2022-10-16T17:48:53;16.01;75.62
71291;DHT22;59073;51.994;4.448;2022-10-16T17:51:22;15.98;75.63
71291;DHT22;59073;51.994;4.448;2022-10-16T17:53:53;15.87;75.79
71291;DHT22;59073;51.994;4.448;2022-10-16T17:56:20;15.91;76.12
71291;DHT22;59073;51.994;4.448;2022-10-16T17:58:52;15.92;76.08
71291;DHT22;59073;51.994;4.448;2022-10-16T18:01:21;15.85;76.25
71291;DHT22;59073;51.994;4.448;2022-10-16T18:03:52;15.84;76.09
71291;DHT22;59073;51.994;4.448;2022-10-16T18:06:18;15.87;76.13
71291;DHT22;59073;51.994;4.448;2022-10-16T18:08:44;15.85;76.24
71291;DHT22;59073;51.994;4.448;2022-10-16T18:11:10;15.87;76.11
71291;DHT22;59073;51.994;4.448;2022-10-16T18:13:35;15.87;76.20
71291;DHT22;59073;51.994;4.448;2022-10-16T18:16:04;15.91;76.13
71291;DHT22;59073;51.994;4.448;2022-10-16T18:18:32;15.94;76.39
71291;DHT22;59073;51.994;4.448;2022-10-16T18:21:02;15.90;77.02
71291;DHT22;59073;51.994;4.448;2022-10-16T18:23:28;15.84;77.02
71291;DHT22;59073;51.994;4.448;2022-10-16T18:25:56;15.75;77.88
71291;DHT22;59073;51.994;4.448;2022-10-16T18:28:22;15.68;77.81
71291;DHT22;59073;51.994;4.448;2022-10-16T18:30:55;15.67;77.96
71291;DHT22;59073;51.994;4.448;2022-10-16T18:33:20;15.60;78.17
71291;DHT22;59073;51.994;4.448;2022-10-16T18:35:46;15.64;78.44
71291;DHT22;59073;51.994;4.448;2022-10-16T18:38:11;15.60;78.03
71291;DHT22;59073;51.994;4.448;2022-10-16T18:40:37;15.54;78.60
71291;DHT22;59073;51.994;4.448;2022-10-16T18:43:02;15.47;78.95
71291;DHT22;59073;51.994;4.448;2022-10-16T18:45:28;15.40;79.44
71291;DHT22;59073;51.994;4.448;2022-10-16T18:47:53;15.33;79.89
71291;DHT22;59073;51.994;4.448;2022-10-16T18:50:19;15.33;80.19
71291;DHT22;59073;51.994;4.448;2022-10-16T18:52:47;15.30;81.00
71291;DHT22;59073;51.994;4.448;2022-10-16T18:55:14;15.29;81.23
71291;DHT22;59073;51.994;4.448;2022-10-16T18:57:39;15.18;81.76
71291;DHT22;59073;51.994;4.448;2022-10-16T19:00:05;15.18;81.88
71291;DHT22;59073;51.994;4.448;2022-10-16T19:02:31;15.10;82.64
71291;DHT22;59073;51.994;4.448;2022-10-16T19:04:57;15.09;82.74
71291;DHT22;59073;51.994;4.448;2022-10-16T19:07:23;15.03;83.42
71291;DHT22;59073;51.994;4.448;2022-10-16T19:09:48;15.04;83.54
71291;DHT22;59073;51.994;4.448;2022-10-16T19:12:14;14.92;83.53
71291;DHT22;59073;51.994;4.448;2022-10-16T19:14:39;14.99;84.03
71291;DHT22;59073;51.994;4.448;2022-10-16T19:17:05;14.93;84.42
71291;DHT22;59073;51.994;4.448;2022-10-16T19:19:30;14.86;84.78
71291;DHT22;59073;51.994;4.448;2022-10-16T19:21:56;14.89;84.59
71291;DHT22;59073;51.994;4.448;2022-10-16T19:24:36;14.86;84.53